KPOU/POU METAR and TAF weather

Enter ICAO airport designator
Station Type Date Time Source
KPOU METAR 2020/01/24 08:53 UTC NOAA

KPOU 240853Z AUTO 00000KT 10SM CLR M04/M07 A3034 RMK AO2 SLP273 T10391072 51002


Station Type Date Time Source
KPOU Decoded METAR 2020/01/24 08:53 UTC NOAA

POUGHKEEPSIE DUTCHESS CTY, NY, United States (KPOU) 41-38N 073-53W 46M
Jan 24, 2020 - 03:53 AM EST / 2020.01.24 0853 UTC
Wind: Calm:0
Visibility: 10 mile(s):0
Sky conditions: clear
Temperature: 25.0 F (-3.9 C)
Dew Point: 19.0 F (-7.2 C)
Relative Humidity: 77%
Pressure (altimeter): 30.34 in. Hg (1027 hPa)
Pressure tendency: 0.01 inches (0.2 hPa) higher than three hours ago
ob: KPOU 240853Z AUTO 00000KT 10SM CLR M04/M07 A3034 RMK AO2 SLP273 T10391072 51002
cycle: 9

Station Type Date Time Source
KPOU TAF 2020/01/24 06:42 UTC NOAA

TAF KPOU 240541Z 2406/2506 00000KT P6SM BKN150
FM241400 00000KT P6SM SCT150
FM242000 VRB03KT P6SM SCT120 BKN200
FM250100 04004KT P6SM SCT009 BKN120

Example: see airport list